createdAt,value
2018-08-17T00:00:17.042Z,19.20
2018-08-17T00:00:50.997Z,19.20
2018-08-17T00:01:25.067Z,19.10
2018-08-17T00:01:59.396Z,19.10
2018-08-17T00:02:33.435Z,19.10
2018-08-17T00:03:07.374Z,19.10
2018-08-17T00:03:41.434Z,19.10
2018-08-17T00:04:15.414Z,19.10
2018-08-17T00:04:49.225Z,19.10
2018-08-17T00:05:23.091Z,19.00
2018-08-17T00:05:57.444Z,19.00
2018-08-17T00:06:31.376Z,19.00
2018-08-17T00:07:05.521Z,19.00
2018-08-17T00:07:39.575Z,19.00
2018-08-17T00:08:14.015Z,19.00
2018-08-17T00:08:48.100Z,19.00
2018-08-17T00:09:22.011Z,18.90
2018-08-17T00:09:56.136Z,19.00
2018-08-17T00:10:30.409Z,19.00
2018-08-17T00:11:04.298Z,19.00
2018-08-17T00:11:38.513Z,18.90
2018-08-17T00:12:12.386Z,19.00
2018-08-17T00:12:46.324Z,18.90
2018-08-17T00:13:20.139Z,19.00
2018-08-17T00:13:54.393Z,19.00
2018-08-17T00:14:28.244Z,19.00
2018-08-17T00:15:02.206Z,19.00
2018-08-17T00:15:36.103Z,19.00
2018-08-17T00:16:10.166Z,19.00
2018-08-17T00:16:43.965Z,19.00
2018-08-17T00:17:17.758Z,19.00
2018-08-17T00:17:51.750Z,19.00
2018-08-17T00:18:25.536Z,19.00
2018-08-17T00:18:59.343Z,19.00
2018-08-17T00:19:33.348Z,19.10
2018-08-17T00:20:07.614Z,19.10
2018-08-17T00:20:41.292Z,19.10
2018-08-17T00:21:15.103Z,19.10
2018-08-17T00:21:49.107Z,19.00
2018-08-17T00:22:22.860Z,19.10
2018-08-17T00:22:56.652Z,19.10
2018-08-17T00:23:31.566Z,19.00
2018-08-17T00:24:05.345Z,19.00
2018-08-17T00:24:39.199Z,19.00
2018-08-17T00:25:12.930Z,19.00
2018-08-17T00:25:47.178Z,19.00
2018-08-17T00:26:21.441Z,19.10
2018-08-17T00:26:55.200Z,19.10
2018-08-17T00:27:29.239Z,19.10
2018-08-17T00:28:03.450Z,19.20
2018-08-17T00:28:37.225Z,19.10
2018-08-17T00:29:11.055Z,19.20
2018-08-17T00:29:45.112Z,19.10
2018-08-17T00:30:19.051Z,19.10
2018-08-17T00:30:52.940Z,19.10
2018-08-17T00:31:26.927Z,19.10
2018-08-17T00:32:00.984Z,19.10
2018-08-17T00:32:35.132Z,19.00
2018-08-17T00:33:09.123Z,19.00
2018-08-17T00:33:43.036Z,19.00
2018-08-17T00:34:16.663Z,19.00
2018-08-17T00:34:50.297Z,19.00
2018-08-17T00:35:24.105Z,19.00
2018-08-17T00:35:57.980Z,19.00
2018-08-17T00:36:32.731Z,19.00
2018-08-17T00:37:06.603Z,19.00
2018-08-17T00:37:40.443Z,18.90
2018-08-17T00:38:14.088Z,18.90
2018-08-17T00:38:47.783Z,19.00
2018-08-17T00:39:21.895Z,18.90
2018-08-17T00:39:55.844Z,19.00
2018-08-17T00:40:29.630Z,18.90
2018-08-17T00:41:03.652Z,18.90
2018-08-17T00:41:37.984Z,18.90
2018-08-17T00:42:11.772Z,18.90
2018-08-17T00:42:45.721Z,19.00
2018-08-17T00:43:19.596Z,19.00
2018-08-17T00:43:53.754Z,19.00
2018-08-17T00:44:27.715Z,19.00
2018-08-17T00:45:03.272Z,19.00
2018-08-17T00:45:37.160Z,19.10
2018-08-17T00:46:11.322Z,19.10
2018-08-17T00:46:45.356Z,19.10
2018-08-17T00:47:19.184Z,19.00
2018-08-17T00:47:53.164Z,19.10
2018-08-17T00:48:26.959Z,19.00
2018-08-17T00:49:01.001Z,19.00
2018-08-17T00:49:34.853Z,19.00
2018-08-17T00:50:08.732Z,18.90
2018-08-17T00:50:42.621Z,18.90
2018-08-17T00:51:16.531Z,18.90
2018-08-17T00:51:50.335Z,18.90
2018-08-17T00:52:24.423Z,18.90
2018-08-17T00:52:58.231Z,18.90
2018-08-17T00:53:32.684Z,18.90
2018-08-17T00:54:06.676Z,18.90
2018-08-17T00:54:40.411Z,18.90
2018-08-17T00:55:14.415Z,18.90
2018-08-17T00:55:48.302Z,18.90
2018-08-17T00:56:22.193Z,18.90
2018-08-17T00:56:56.004Z,18.80
2018-08-17T00:57:30.360Z,18.90
2018-08-17T00:58:04.255Z,18.90
2018-08-17T00:58:38.127Z,18.90
2018-08-17T00:59:12.054Z,18.90
2018-08-17T00:59:45.824Z,18.90
2018-08-17T01:00:19.478Z,18.90
2018-08-17T01:00:53.361Z,18.90
2018-08-17T01:01:27.352Z,18.90
2018-08-17T01:02:01.044Z,18.90
2018-08-17T01:02:34.855Z,18.90
2018-08-17T01:03:08.943Z,18.90
2018-08-17T01:03:42.912Z,18.90
2018-08-17T01:04:16.672Z,18.90
2018-08-17T01:04:50.383Z,18.90
2018-08-17T01:05:24.062Z,18.90
2018-08-17T01:05:57.743Z,18.90
2018-08-17T01:06:31.432Z,18.90
2018-08-17T01:07:05.272Z,18.90
2018-08-17T01:07:39.035Z,18.80
2018-08-17T01:08:13.009Z,18.80
2018-08-17T01:08:46.732Z,18.80
2018-08-17T01:09:20.507Z,18.80
2018-08-17T01:09:54.351Z,18.80
2018-08-17T01:10:28.222Z,18.80
2018-08-17T01:11:02.084Z,18.80
2018-08-17T01:11:36.195Z,18.80
2018-08-17T01:12:10.247Z,18.80
2018-08-17T01:12:43.994Z,18.80
2018-08-17T01:13:17.935Z,18.80
2018-08-17T01:13:51.908Z,18.80
2018-08-17T01:14:25.624Z,18.80
2018-08-17T01:14:59.234Z,18.80
2018-08-17T01:15:32.962Z,18.80
2018-08-17T01:16:06.978Z,18.80
2018-08-17T01:16:40.945Z,18.80
2018-08-17T01:17:14.871Z,18.90
2018-08-17T01:17:48.684Z,18.90
2018-08-17T01:18:22.604Z,18.90
2018-08-17T01:18:56.346Z,18.80
2018-08-17T01:19:33.285Z,18.80
2018-08-17T01:20:08.959Z,18.80
2018-08-17T01:20:42.609Z,18.80
2018-08-17T01:21:16.426Z,18.80
2018-08-17T01:21:50.299Z,18.80
2018-08-17T01:22:24.237Z,18.80
2018-08-17T01:22:58.312Z,18.80
2018-08-17T01:23:31.959Z,18.80
2018-08-17T01:24:06.578Z,18.80
2018-08-17T01:24:40.406Z,18.80
2018-08-17T01:25:14.423Z,18.80
2018-08-17T01:25:48.298Z,18.80
2018-08-17T01:26:22.127Z,18.80
2018-08-17T01:26:55.824Z,18.80
2018-08-17T01:27:29.597Z,18.80
2018-08-17T01:28:03.467Z,18.80
2018-08-17T01:28:38.200Z,18.80
2018-08-17T01:29:11.991Z,18.80
2018-08-17T01:30:26.409Z,18.80
2018-08-17T01:31:00.126Z,18.80
2018-08-17T01:31:33.806Z,18.80
2018-08-17T01:32:07.515Z,18.80
2018-08-17T01:32:41.492Z,18.80
2018-08-17T01:33:15.288Z,18.80
2018-08-17T01:33:49.720Z,18.80
2018-08-17T01:34:23.646Z,18.80
2018-08-17T01:34:57.300Z,18.80
2018-08-17T01:35:31.388Z,18.80
2018-08-17T01:36:05.164Z,18.80
2018-08-17T01:36:38.963Z,18.80
2018-08-17T01:37:13.076Z,18.80
2018-08-17T01:37:47.069Z,18.80
2018-08-17T01:38:20.939Z,18.80
2018-08-17T01:38:54.807Z,18.90
2018-08-17T01:39:28.687Z,18.80
2018-08-17T01:40:02.439Z,18.80
2018-08-17T01:40:36.414Z,18.80
2018-08-17T01:41:10.189Z,18.80
2018-08-17T01:41:44.207Z,18.80
2018-08-17T01:42:18.207Z,18.80
2018-08-17T01:42:52.200Z,18.80
2018-08-17T01:43:25.991Z,18.80
2018-08-17T01:43:59.949Z,18.80
2018-08-17T01:44:33.795Z,18.80
2018-08-17T01:45:12.636Z,18.80
2018-08-17T01:45:46.600Z,18.80
2018-08-17T01:46:20.488Z,18.80
2018-08-17T01:46:55.196Z,18.80
2018-08-17T01:47:28.794Z,18.80
2018-08-17T01:48:02.471Z,18.80
2018-08-17T01:48:36.443Z,18.70
2018-08-17T01:49:10.439Z,18.70
2018-08-17T01:49:44.325Z,18.80
2018-08-17T01:50:18.281Z,18.80
2018-08-17T01:50:52.266Z,18.80
2018-08-17T01:51:26.245Z,18.80
2018-08-17T01:52:00.045Z,18.80
2018-08-17T01:52:33.844Z,18.70
2018-08-17T01:53:07.552Z,18.70
2018-08-17T01:53:41.404Z,18.70
2018-08-17T01:54:15.746Z,18.70
2018-08-17T01:54:49.521Z,18.70
2018-08-17T01:55:23.172Z,18.70
2018-08-17T01:55:56.847Z,18.70
2018-08-17T01:56:30.711Z,18.70
2018-08-17T01:57:04.993Z,18.70
2018-08-17T01:57:39.188Z,18.70
2018-08-17T01:58:12.856Z,18.70
2018-08-17T01:58:46.844Z,18.60
2018-08-17T01:59:20.582Z,18.60
2018-08-17T01:59:54.407Z,18.60
2018-08-17T02:00:28.271Z,18.60
2018-08-17T02:01:02.027Z,18.60
2018-08-17T02:01:36.026Z,18.60
2018-08-17T02:02:09.783Z,18.60
2018-08-17T02:02:43.660Z,18.60
2018-08-17T02:03:17.881Z,18.60
2018-08-17T02:03:52.060Z,18.60
2018-08-17T02:04:25.772Z,18.60
2018-08-17T02:04:59.631Z,18.50
2018-08-17T02:05:33.314Z,18.50
2018-08-17T02:06:07.047Z,18.50
2018-08-17T02:06:40.913Z,18.50
2018-08-17T02:07:14.824Z,18.50
2018-08-17T02:07:48.788Z,18.50
2018-08-17T02:08:22.687Z,18.50
2018-08-17T02:08:56.426Z,18.50
2018-08-17T02:09:30.128Z,18.60
2018-08-17T02:10:05.611Z,18.50
2018-08-17T02:10:39.556Z,18.60
2018-08-17T02:11:13.380Z,18.60
2018-08-17T02:11:47.356Z,18.50
2018-08-17T02:12:21.164Z,18.50
2018-08-17T02:12:54.895Z,18.50
2018-08-17T02:13:28.708Z,18.50
2018-08-17T02:14:02.628Z,18.50
2018-08-17T02:14:36.506Z,18.50
2018-08-17T02:15:10.184Z,18.50
2018-08-17T02:15:43.895Z,18.50
2018-08-17T02:16:17.829Z,18.50
2018-08-17T02:16:51.772Z,18.50
2018-08-17T02:17:25.515Z,18.50
2018-08-17T02:17:59.281Z,18.50
2018-08-17T02:18:33.155Z,18.50
2018-08-17T02:19:07.176Z,18.50
2018-08-17T02:19:41.083Z,18.50
2018-08-17T02:20:14.765Z,18.50
2018-08-17T02:20:48.675Z,18.50
2018-08-17T02:21:22.708Z,18.50
2018-08-17T02:21:56.654Z,18.40
2018-08-17T02:22:30.447Z,18.40
2018-08-17T02:23:04.188Z,18.40
2018-08-17T02:23:37.991Z,18.40
2018-08-17T02:24:11.672Z,18.40
2018-08-17T02:24:45.494Z,18.40
2018-08-17T02:25:19.411Z,18.40
2018-08-17T02:25:53.492Z,18.40
2018-08-17T02:26:27.152Z,18.40
2018-08-17T02:27:00.891Z,18.40
2018-08-17T02:27:34.739Z,18.40
2018-08-17T02:28:08.678Z,18.30
2018-08-17T02:28:42.305Z,18.40
2018-08-17T02:29:15.982Z,18.40
2018-08-17T02:29:50.167Z,18.40
2018-08-17T02:30:24.157Z,18.40
2018-08-17T02:30:58.074Z,18.40
2018-08-17T02:31:32.442Z,18.30
2018-08-17T02:32:06.311Z,18.40
2018-08-17T02:32:40.381Z,18.40
2018-08-17T02:33:14.125Z,18.40
2018-08-17T02:33:48.197Z,18.40
2018-08-17T02:34:22.112Z,18.40
2018-08-17T02:34:55.928Z,18.40
2018-08-17T02:35:29.719Z,18.40
2018-08-17T02:36:03.735Z,18.40
2018-08-17T02:36:37.540Z,18.40
2018-08-17T02:37:11.592Z,18.40
2018-08-17T02:37:45.403Z,18.40
2018-08-17T02:38:19.598Z,18.30
2018-08-17T02:38:53.634Z,18.40
2018-08-17T02:39:27.503Z,18.40
2018-08-17T02:40:01.107Z,18.40
2018-08-17T02:40:34.975Z,18.40
2018-08-17T02:41:08.892Z,18.40
2018-08-17T02:41:42.764Z,18.40
2018-08-17T02:42:16.643Z,18.40
2018-08-17T02:42:50.280Z,18.40
2018-08-17T02:43:24.155Z,18.40
2018-08-17T02:43:58.000Z,18.40
2018-08-17T02:44:31.925Z,18.40
2018-08-17T02:45:05.919Z,18.40
2018-08-17T02:45:39.788Z,18.40
2018-08-17T02:46:13.604Z,18.40
2018-08-17T02:46:47.339Z,18.40
2018-08-17T02:47:21.248Z,18.40
2018-08-17T02:47:55.108Z,18.40
2018-08-17T02:48:29.297Z,18.40
2018-08-17T02:49:02.880Z,18.40
2018-08-17T02:49:36.454Z,18.40
2018-08-17T02:50:10.195Z,18.40
2018-08-17T02:50:44.009Z,18.40
2018-08-17T02:51:17.840Z,18.40
2018-08-17T02:51:51.825Z,18.40
2018-08-17T02:52:25.964Z,18.50
2018-08-17T02:52:59.757Z,18.50
2018-08-17T02:53:33.628Z,18.50
2018-08-17T02:54:07.396Z,18.50
2018-08-17T02:54:41.080Z,18.50
2018-08-17T02:55:14.794Z,18.50
2018-08-17T02:55:48.656Z,18.50
2018-08-17T02:56:22.661Z,18.50
2018-08-17T02:56:56.512Z,18.60
2018-08-17T02:57:30.594Z,18.60
2018-08-17T02:58:04.698Z,18.60
2018-08-17T02:58:38.575Z,18.60
2018-08-17T02:59:12.395Z,18.60
2018-08-17T02:59:46.057Z,18.60
2018-08-17T03:00:19.971Z,18.60
2018-08-17T03:00:53.858Z,18.60
2018-08-17T03:01:27.870Z,18.60
2018-08-17T03:02:01.900Z,18.60
2018-08-17T03:02:35.693Z,18.60
2018-08-17T03:03:09.501Z,18.60
2018-08-17T03:03:43.523Z,18.60
2018-08-17T03:04:17.695Z,18.60
2018-08-17T03:04:51.445Z,18.60
2018-08-17T03:05:25.209Z,18.60
2018-08-17T03:05:59.028Z,18.60
2018-08-17T03:06:32.749Z,18.60
2018-08-17T03:07:06.672Z,18.60
2018-08-17T03:07:40.476Z,18.60
2018-08-17T03:08:14.332Z,18.60
2018-08-17T03:08:48.373Z,18.60
2018-08-17T03:09:22.141Z,18.60
2018-08-17T03:09:55.958Z,18.60
2018-08-17T03:10:29.939Z,18.60
2018-08-17T03:11:04.054Z,18.60
2018-08-17T03:11:37.928Z,18.60
2018-08-17T03:12:11.657Z,18.60
2018-08-17T03:12:45.532Z,18.70
2018-08-17T03:13:19.999Z,18.60
2018-08-17T03:13:53.969Z,18.70
2018-08-17T03:14:29.063Z,18.60
2018-08-17T03:15:03.145Z,18.70
2018-08-17T03:15:36.975Z,18.70
2018-08-17T03:16:10.804Z,18.70
2018-08-17T03:16:44.837Z,18.70
2018-08-17T03:17:18.656Z,18.70
2018-08-17T03:17:52.442Z,18.70
2018-08-17T03:18:28.538Z,18.70
2018-08-17T03:19:03.301Z,18.70
2018-08-17T03:19:37.110Z,18.70
2018-08-17T03:20:10.771Z,18.70
2018-08-17T03:20:44.823Z,18.70
2018-08-17T03:21:18.509Z,18.70
2018-08-17T03:21:52.204Z,18.80
2018-08-17T03:22:26.058Z,18.80
2018-08-17T03:22:59.999Z,18.70
2018-08-17T03:23:34.276Z,18.70
2018-08-17T03:24:08.781Z,18.80
2018-08-17T03:24:42.456Z,18.80
2018-08-17T03:25:16.140Z,18.80
2018-08-17T03:25:49.929Z,18.80
2018-08-17T03:26:23.675Z,18.80
2018-08-17T03:26:57.516Z,18.80
2018-08-17T03:27:31.404Z,18.80
2018-08-17T03:28:05.355Z,18.80
2018-08-17T03:28:39.163Z,18.80
2018-08-17T03:29:13.024Z,18.80
2018-08-17T03:29:46.875Z,18.80
2018-08-17T03:30:20.670Z,18.80
2018-08-17T03:30:54.673Z,18.80
2018-08-17T03:31:28.575Z,18.80
2018-08-17T03:32:02.556Z,18.80
2018-08-17T03:32:36.250Z,18.80
2018-08-17T03:33:10.040Z,18.80
2018-08-17T03:33:43.649Z,18.80
2018-08-17T03:34:17.349Z,18.70
2018-08-17T03:34:51.142Z,18.70
2018-08-17T03:35:25.019Z,18.70
2018-08-17T03:35:58.816Z,18.70
2018-08-17T03:36:32.688Z,18.70
2018-08-17T03:37:06.585Z,18.60
2018-08-17T03:37:40.411Z,18.60
2018-08-17T03:38:14.439Z,18.60
2018-08-17T03:38:48.237Z,18.60
2018-08-17T03:39:21.979Z,18.60
2018-08-17T03:39:55.853Z,18.50
2018-08-17T03:40:30.090Z,18.50
2018-08-17T03:41:04.063Z,18.40
2018-08-17T03:41:38.048Z,18.40
2018-08-17T03:42:11.781Z,18.40
2018-08-17T03:42:45.749Z,18.40
2018-08-17T03:43:19.607Z,18.40
2018-08-17T03:43:53.421Z,18.40
2018-08-17T03:44:27.057Z,18.40
2018-08-17T03:45:01.988Z,18.40
2018-08-17T03:45:35.995Z,18.40
2018-08-17T03:46:09.776Z,18.40
2018-08-17T03:46:43.715Z,18.40
2018-08-17T03:47:17.339Z,18.40
2018-08-17T03:47:51.125Z,18.40
2018-08-17T03:48:24.816Z,18.40
2018-08-17T03:48:58.451Z,18.40
2018-08-17T03:49:32.418Z,18.40
2018-08-17T03:50:07.013Z,18.40
2018-08-17T03:50:40.917Z,18.40
2018-08-17T03:51:15.061Z,18.30
2018-08-17T03:51:48.873Z,18.30
2018-08-17T03:52:22.640Z,18.30
2018-08-17T03:52:56.313Z,18.30
2018-08-17T03:53:30.245Z,18.30
2018-08-17T03:54:04.256Z,18.30
2018-08-17T03:54:38.256Z,18.30
2018-08-17T03:55:12.832Z,18.30
2018-08-17T03:55:47.239Z,18.30
2018-08-17T03:56:21.335Z,18.30
2018-08-17T03:56:55.228Z,18.30
2018-08-17T03:57:29.028Z,18.30
2018-08-17T03:58:03.178Z,18.30
2018-08-17T03:58:37.460Z,18.30
2018-08-17T03:59:11.327Z,18.30
2018-08-17T03:59:45.152Z,18.30
2018-08-17T04:00:19.510Z,18.30
2018-08-17T04:00:53.237Z,18.30
2018-08-17T04:01:27.086Z,18.30
2018-08-17T04:02:00.797Z,18.30
2018-08-17T04:02:34.717Z,18.30
2018-08-17T04:03:08.477Z,18.30
2018-08-17T04:03:42.381Z,18.30
2018-08-17T04:04:16.276Z,18.30
2018-08-17T04:04:50.059Z,18.30
2018-08-17T04:05:23.758Z,18.30
2018-08-17T04:05:57.619Z,18.30
2018-08-17T04:06:31.322Z,18.30
2018-08-17T04:07:05.274Z,18.30
2018-08-17T04:07:39.041Z,18.30
2018-08-17T04:08:12.684Z,18.30
2018-08-17T04:08:46.425Z,18.30
2018-08-17T04:09:20.299Z,18.30
2018-08-17T04:09:54.091Z,18.30
2018-08-17T04:10:27.854Z,18.30
2018-08-17T04:11:01.675Z,18.30
2018-08-17T04:11:35.739Z,18.30
2018-08-17T04:12:09.809Z,18.40
2018-08-17T04:12:43.544Z,18.30
2018-08-17T04:13:17.539Z,18.40
2018-08-17T04:13:51.376Z,18.40
2018-08-17T04:14:25.450Z,18.40
2018-08-17T04:14:59.129Z,18.40
2018-08-17T04:15:32.871Z,18.50
2018-08-17T04:16:06.873Z,18.50
2018-08-17T04:16:43.053Z,18.50
2018-08-17T04:17:16.883Z,18.50
2018-08-17T04:17:50.666Z,18.60
2018-08-17T04:18:24.393Z,18.60
2018-08-17T04:18:59.080Z,18.60
2018-08-17T04:19:33.010Z,18.60
2018-08-17T04:20:07.280Z,18.60
2018-08-17T04:20:40.980Z,18.60
2018-08-17T04:21:14.806Z,18.60
2018-08-17T04:21:48.815Z,18.60
2018-08-17T04:22:22.589Z,18.60
2018-08-17T04:22:56.436Z,18.70
2018-08-17T04:23:30.373Z,18.70
2018-08-17T04:24:04.350Z,18.60
2018-08-17T04:24:38.140Z,18.70
2018-08-17T04:25:13.057Z,18.70
2018-08-17T04:25:46.926Z,18.70
2018-08-17T04:26:20.928Z,18.70
2018-08-17T04:26:54.720Z,18.70
2018-08-17T04:27:28.489Z,18.70
2018-08-17T04:28:02.403Z,18.70
2018-08-17T04:28:36.117Z,18.70
2018-08-17T04:29:10.106Z,18.70
2018-08-17T04:29:44.142Z,18.70
2018-08-17T04:30:17.883Z,18.70
2018-08-17T04:30:51.912Z,18.70
2018-08-17T04:31:26.361Z,18.70
2018-08-17T04:32:00.176Z,18.70
2018-08-17T04:32:33.969Z,18.70
2018-08-17T04:33:07.962Z,18.70
2018-08-17T04:33:42.022Z,18.70
2018-08-17T04:34:15.928Z,18.70
2018-08-17T04:34:49.828Z,18.70
2018-08-17T04:35:23.646Z,18.80
2018-08-17T04:35:57.409Z,18.80
2018-08-17T04:36:31.145Z,18.80
2018-08-17T04:37:05.349Z,18.80
2018-08-17T04:37:39.351Z,18.80
2018-08-17T04:38:13.344Z,18.80
2018-08-17T04:38:48.352Z,18.80
2018-08-17T04:39:22.167Z,18.80
2018-08-17T04:39:55.888Z,18.80
2018-08-17T04:40:29.721Z,18.80
2018-08-17T04:41:03.642Z,18.90
2018-08-17T04:41:37.387Z,18.80
2018-08-17T04:42:11.192Z,18.80
2018-08-17T04:42:44.976Z,18.90
2018-08-17T04:43:18.974Z,18.90
2018-08-17T04:43:52.887Z,18.90
2018-08-17T04:44:26.826Z,18.90
2018-08-17T04:45:00.734Z,18.90
2018-08-17T04:45:34.440Z,18.80
2018-08-17T04:46:08.458Z,18.90
2018-08-17T04:46:42.369Z,18.90
2018-08-17T04:47:16.444Z,18.80
2018-08-17T04:47:50.422Z,18.80
2018-08-17T04:48:24.450Z,18.80
2018-08-17T04:48:58.465Z,18.80
2018-08-17T04:49:32.229Z,18.80
2018-08-17T04:50:06.632Z,18.80
2018-08-17T04:50:40.451Z,18.80
2018-08-17T04:51:14.423Z,18.80
2018-08-17T04:51:48.259Z,18.80
2018-08-17T04:52:22.194Z,18.80
2018-08-17T04:52:55.938Z,18.80
2018-08-17T04:53:29.884Z,18.80
2018-08-17T04:54:03.795Z,18.80
2018-08-17T04:54:37.623Z,18.80
2018-08-17T04:55:11.364Z,18.80
2018-08-17T04:55:45.537Z,18.80
2018-08-17T04:56:19.797Z,18.80
2018-08-17T04:56:53.683Z,18.80
2018-08-17T04:57:28.240Z,18.90
2018-08-17T04:58:02.105Z,18.80
2018-08-17T04:58:36.103Z,18.80
2018-08-17T04:59:10.072Z,18.80
2018-08-17T04:59:44.157Z,18.80
2018-08-17T05:00:18.067Z,18.80
2018-08-17T05:00:51.896Z,18.80
2018-08-17T05:01:25.855Z,18.80
2018-08-17T05:01:59.755Z,18.80
2018-08-17T05:02:34.605Z,18.70
2018-08-17T05:03:08.185Z,18.70
2018-08-17T05:03:41.841Z,18.70
2018-08-17T05:04:15.880Z,18.80
2018-08-17T05:04:49.684Z,18.70
2018-08-17T05:05:23.642Z,18.70
2018-08-17T05:05:57.702Z,18.70
2018-08-17T05:06:31.722Z,18.70
2018-08-17T05:07:05.611Z,18.70
2018-08-17T05:07:39.384Z,18.70
2018-08-17T05:08:13.261Z,18.70
2018-08-17T05:08:47.358Z,18.70
2018-08-17T05:09:21.430Z,18.70
2018-08-17T05:09:55.300Z,18.70
2018-08-17T05:10:29.239Z,18.70
2018-08-17T05:11:02.863Z,18.70
2018-08-17T05:11:36.467Z,18.60
2018-08-17T05:12:10.335Z,18.60
2018-08-17T05:12:44.420Z,18.60
2018-08-17T05:13:18.498Z,18.60
2018-08-17T05:13:53.019Z,18.60
2018-08-17T05:14:26.873Z,18.50
2018-08-17T05:15:00.636Z,18.50
2018-08-17T05:15:34.258Z,18.40
2018-08-17T05:16:08.269Z,18.40
2018-08-17T05:16:42.019Z,18.40
2018-08-17T05:17:16.057Z,18.40
2018-08-17T05:17:50.452Z,18.40
2018-08-17T05:18:24.348Z,18.40
2018-08-17T05:18:58.228Z,18.30
2018-08-17T05:19:32.052Z,18.30
2018-08-17T05:20:06.003Z,18.40
2018-08-17T05:20:39.927Z,18.40
2018-08-17T05:21:14.852Z,18.40
2018-08-17T05:21:49.279Z,18.50
2018-08-17T05:22:23.150Z,18.40
2018-08-17T05:22:56.901Z,18.30
2018-08-17T05:23:31.055Z,18.30
2018-08-17T05:24:05.113Z,18.30
2018-08-17T05:24:39.032Z,18.20
2018-08-17T05:25:12.921Z,18.20
2018-08-17T05:25:47.647Z,18.30
2018-08-17T05:26:21.728Z,18.30
2018-08-17T05:26:56.124Z,18.30
2018-08-17T05:27:30.027Z,18.30
2018-08-17T05:28:04.160Z,18.30
2018-08-17T05:28:37.865Z,18.30
2018-08-17T05:29:11.713Z,18.20
2018-08-17T05:29:45.589Z,18.20
2018-08-17T05:30:20.036Z,18.20
2018-08-17T05:30:54.037Z,18.20
2018-08-17T05:31:27.926Z,18.20
2018-08-17T05:32:01.708Z,18.20
2018-08-17T05:32:35.495Z,18.20
2018-08-17T05:33:09.698Z,18.20
2018-08-17T05:33:43.325Z,18.20
2018-08-17T05:34:17.044Z,18.20
2018-08-17T05:34:51.087Z,18.20
2018-08-17T05:35:25.185Z,18.20
2018-08-17T05:35:59.169Z,18.20
2018-08-17T05:36:33.141Z,18.20
2018-08-17T05:37:07.053Z,18.20
2018-08-17T05:37:40.967Z,18.20
2018-08-17T05:38:14.876Z,18.10
2018-08-17T05:38:48.609Z,18.10
2018-08-17T05:39:22.697Z,18.10
2018-08-17T05:39:56.943Z,18.10
2018-08-17T05:40:30.768Z,18.10
2018-08-17T05:41:04.820Z,18.10
2018-08-17T05:41:38.732Z,18.10
2018-08-17T05:42:12.512Z,18.10
2018-08-17T05:42:46.436Z,18.10
2018-08-17T05:43:20.763Z,18.10
2018-08-17T05:43:54.534Z,18.10
2018-08-17T05:44:28.312Z,18.10
2018-08-17T05:45:02.225Z,18.10
2018-08-17T05:45:35.878Z,18.10
2018-08-17T05:46:09.924Z,18.10
2018-08-17T05:46:43.733Z,18.00
2018-08-17T05:47:17.700Z,18.00
2018-08-17T05:47:51.654Z,18.00
2018-08-17T05:48:25.576Z,18.10
2018-08-17T05:48:59.372Z,18.10
2018-08-17T05:49:33.252Z,18.10
2018-08-17T05:50:07.971Z,18.00
2018-08-17T05:50:41.697Z,18.00
2018-08-17T05:51:15.532Z,17.90
2018-08-17T05:51:49.452Z,17.90
2018-08-17T05:52:23.362Z,18.00
2018-08-17T05:52:57.399Z,18.00
2018-08-17T05:53:31.218Z,18.00
2018-08-17T05:54:05.336Z,18.00
2018-08-17T05:54:39.144Z,18.00
2018-08-17T05:55:12.977Z,18.00
2018-08-17T05:55:46.836Z,18.00
2018-08-17T05:56:20.924Z,18.00
2018-08-17T05:56:54.670Z,18.00
2018-08-17T05:57:28.603Z,18.00
2018-08-17T05:58:02.285Z,18.00
2018-08-17T05:58:35.944Z,18.00
2018-08-17T05:59:10.111Z,18.00
2018-08-17T05:59:43.789Z,18.00
2018-08-17T06:00:17.682Z,18.00
2018-08-17T06:00:51.613Z,18.00
2018-08-17T06:01:25.798Z,18.00
2018-08-17T06:02:00.217Z,17.90
2018-08-17T06:02:34.112Z,17.80
2018-08-17T06:03:08.060Z,17.80
2018-08-17T06:03:41.944Z,17.80
2018-08-17T06:04:15.577Z,17.80
2018-08-17T06:04:49.392Z,17.80
2018-08-17T06:05:23.648Z,17.80
2018-08-17T06:05:58.061Z,17.80
2018-08-17T06:06:32.216Z,17.80
2018-08-17T06:07:06.508Z,17.80
2018-08-17T06:07:40.213Z,17.90
2018-08-17T06:08:14.136Z,17.80
2018-08-17T06:08:48.364Z,17.80
2018-08-17T06:09:22.298Z,17.80
2018-08-17T06:09:58.585Z,17.90
2018-08-17T06:10:32.577Z,17.80
2018-08-17T06:11:06.658Z,17.80
2018-08-17T06:11:40.426Z,17.70
2018-08-17T06:12:14.593Z,17.80
2018-08-17T06:12:48.684Z,17.80
2018-08-17T06:13:23.590Z,17.80
2018-08-17T06:13:58.631Z,17.80
2018-08-17T06:14:32.488Z,17.80
2018-08-17T06:15:07.204Z,17.80
2018-08-17T06:15:41.006Z,17.80
2018-08-17T06:16:14.988Z,17.80
2018-08-17T06:16:48.913Z,17.80
2018-08-17T06:17:22.888Z,17.80
2018-08-17T06:17:56.811Z,17.80
2018-08-17T06:18:30.951Z,17.80
2018-08-17T06:19:05.130Z,17.70
2018-08-17T06:19:38.811Z,17.70
2018-08-17T06:20:12.767Z,17.70
2018-08-17T06:20:46.746Z,17.70
2018-08-17T06:21:20.591Z,17.80
2018-08-17T06:21:54.486Z,17.80
2018-08-17T06:22:28.889Z,17.80
2018-08-17T06:23:02.593Z,17.70
2018-08-17T06:23:36.359Z,17.70
2018-08-17T06:24:10.463Z,17.70
2018-08-17T06:24:44.336Z,17.70
2018-08-17T06:25:18.135Z,17.70
2018-08-17T06:25:52.121Z,17.70
2018-08-17T06:26:26.660Z,17.70
2018-08-17T06:27:00.508Z,17.60
2018-08-17T06:27:34.551Z,17.70
2018-08-17T06:28:08.347Z,17.70
2018-08-17T06:28:42.091Z,17.70
2018-08-17T06:29:15.976Z,17.70
2018-08-17T06:29:49.777Z,17.70
2018-08-17T06:30:23.831Z,17.70
2018-08-17T06:30:59.262Z,17.70
2018-08-17T06:31:34.545Z,17.70
2018-08-17T06:32:08.802Z,17.70
2018-08-17T06:32:43.626Z,17.60
2018-08-17T06:33:17.471Z,17.60
2018-08-17T06:33:51.299Z,17.60
2018-08-17T06:34:25.155Z,17.60
2018-08-17T06:34:59.620Z,17.60
2018-08-17T06:35:33.616Z,17.60
2018-08-17T06:36:07.537Z,17.50
2018-08-17T06:36:42.302Z,17.60
2018-08-17T06:37:16.351Z,17.60
2018-08-17T06:37:49.954Z,17.60
2018-08-17T06:38:23.973Z,17.60
2018-08-17T06:38:57.989Z,17.60
2018-08-17T06:39:32.069Z,17.60
2018-08-17T06:40:06.477Z,17.60
2018-08-17T06:40:40.669Z,17.60
2018-08-17T06:41:14.450Z,17.60
2018-08-17T06:41:48.139Z,17.50
2018-08-17T06:42:21.905Z,17.50
2018-08-17T06:42:55.760Z,17.50
2018-08-17T06:43:29.662Z,17.50
2018-08-17T06:44:04.814Z,17.50
2018-08-17T06:44:38.666Z,17.50
2018-08-17T06:45:12.719Z,17.50
2018-08-17T06:45:46.638Z,17.50
2018-08-17T06:46:20.452Z,17.50
2018-08-17T06:46:54.118Z,17.50
2018-08-17T06:47:28.104Z,17.50
2018-08-17T06:48:02.356Z,17.50
2018-08-17T06:48:36.078Z,17.50
2018-08-17T06:49:10.001Z,17.50
2018-08-17T06:49:43.910Z,17.60
2018-08-17T06:50:17.798Z,17.60
2018-08-17T06:50:51.801Z,17.50
2018-08-17T06:51:25.578Z,17.50
2018-08-17T06:51:59.788Z,17.50
2018-08-17T06:52:33.886Z,17.60
2018-08-17T06:53:07.889Z,17.50
2018-08-17T06:53:41.683Z,17.50
2018-08-17T06:54:15.581Z,17.50
2018-08-17T06:54:49.735Z,17.60
2018-08-17T06:55:23.511Z,17.60
2018-08-17T06:55:58.130Z,17.50
2018-08-17T06:56:32.256Z,17.50
2018-08-17T06:57:06.430Z,17.50
2018-08-17T06:57:40.452Z,17.50
2018-08-17T06:58:14.227Z,17.50
2018-08-17T06:58:47.878Z,17.60
2018-08-17T06:59:21.975Z,17.60
2018-08-17T06:59:56.253Z,17.60
2018-08-17T07:00:30.042Z,17.60
2018-08-17T07:01:03.752Z,17.60
2018-08-17T07:01:37.730Z,17.60
2018-08-17T07:02:11.728Z,17.70
2018-08-17T07:02:46.450Z,17.70
2018-08-17T07:03:20.243Z,17.70
2018-08-17T07:03:54.211Z,17.70
2018-08-17T07:04:28.160Z,17.80
2018-08-17T07:05:02.637Z,17.80
2018-08-17T07:05:36.527Z,17.70
2018-08-17T07:06:10.522Z,17.80
2018-08-17T07:06:44.396Z,17.80
2018-08-17T07:07:18.217Z,17.80
2018-08-17T07:07:52.060Z,17.80
2018-08-17T07:08:25.991Z,17.90
2018-08-17T07:08:59.752Z,17.80
2018-08-17T07:09:34.032Z,17.80
2018-08-17T07:10:09.879Z,17.80
2018-08-17T07:10:43.636Z,17.80
2018-08-17T07:11:17.447Z,17.80
2018-08-17T07:11:51.210Z,17.80
2018-08-17T07:12:25.210Z,17.90
2018-08-17T07:12:58.926Z,17.90
2018-08-17T07:13:32.736Z,17.90
2018-08-17T07:14:08.464Z,18.00
2018-08-17T07:14:42.551Z,18.00
2018-08-17T07:15:16.375Z,18.00
2018-08-17T07:15:50.367Z,18.10
2018-08-17T07:16:24.445Z,18.10
2018-08-17T07:16:58.136Z,18.10
2018-08-17T07:17:31.864Z,18.10
2018-08-17T07:18:05.946Z,18.10